Time;durP1;ratioP1;P1;durP2;ratioP2;P2;SDS_P1;SDS_P2;PMS_P1;PMS_P2;Temp;Humidity;BMP_temperature;BMP_pressure;BME280_temperature;BME280_humidity;BME280_pressure;Samples;Min_cycle;Max_cycle;Signal;HPM_P1;HPM_P2
2020/12/05 00:01:05;;;;;;;5.40;4.20;;;21.30;53.30;;;;;;5053690;28;20174;-71
2020/12/05 00:03:31;;;;;;;6.40;4.60;;;21.30;53.30;;;;;;5053988;28;20173;-71
2020/12/05 00:05:57;;;;;;;6.10;4.50;;;21.30;53.30;;;;;;5053523;28;20535;-71
2020/12/05 00:08:22;;;;;;;4.40;3.53;;;21.30;53.30;;;;;;5053550;28;20420;-71
2020/12/05 00:10:48;;;;;;;5.50;4.33;;;21.30;53.30;;;;;;5053490;28;20597;-71
2020/12/05 00:13:14;;;;;;;8.87;4.70;;;21.30;53.20;;;;;;5035659;28;20224;-70
2020/12/05 00:15:40;;;;;;;5.30;4.60;;;21.30;53.20;;;;;;5053356;28;20177;-71
2020/12/05 00:18:06;;;;;;;5.30;4.00;;;21.40;53.30;;;;;;5035455;28;20453;-71
2020/12/05 00:20:32;;;;;;;5.40;3.20;;;21.40;53.30;;;;;;5053439;28;20409;-71
2020/12/05 00:22:57;;;;;;;5.43;4.10;;;21.40;53.30;;;;;;5053621;28;20245;-71
2020/12/05 00:25:23;;;;;;;5.53;4.80;;;21.40;53.30;;;;;;5053807;28;20528;-70
2020/12/05 00:27:48;;;;;;;6.73;5.07;;;21.40;53.20;;;;;;5053036;28;20270;-71
2020/12/05 00:30:15;;;;;;;4.00;3.60;;;21.40;53.20;;;;;;5053082;28;20518;-71
2020/12/05 00:32:40;;;;;;;5.77;4.30;;;21.40;53.20;;;;;;5053233;28;20277;-71
2020/12/05 00:35:07;;;;;;;4.60;4.20;;;21.40;53.20;;;;;;5053127;28;20816;-70
2020/12/05 00:37:33;;;;;;;5.70;4.50;;;21.40;53.20;;;;;;5053046;28;20685;-70
2020/12/05 00:39:59;;;;;;;5.47;3.57;;;21.40;53.70;;;;;;5053340;28;20413;-70
2020/12/05 00:42:25;;;;;;;4.80;4.30;;;21.40;53.20;;;;;;5053062;28;20170;-71
2020/12/05 00:44:51;;;;;;;5.10;3.83;;;21.40;53.20;;;;;;5053044;28;20653;-70
2020/12/05 00:47:16;;;;;;;6.77;4.27;;;21.40;53.20;;;;;;5052892;28;20441;-71
2020/12/05 00:49:42;;;;;;;6.10;4.90;;;21.40;53.10;;;;;;5052922;28;20171;-70
2020/12/05 00:52:08;;;;;;;4.33;3.90;;;21.40;53.20;;;;;;5052909;28;20171;-71
2020/12/05 00:54:33;;;;;;;5.23;3.77;;;21.40;53.20;;;;;;5052931;28;20642;-71
2020/12/05 00:56:59;;;;;;;4.73;3.90;;;21.40;53.20;;;;;;5052724;28;20197;-70
2020/12/05 00:59:24;;;;;;;4.83;4.03;;;21.40;53.20;;;;;;5053075;28;20503;-71
2020/12/05 01:01:54;;;;;;;5.80;3.53;;;21.30;53.20;;;;;;5052822;28;20179;-70
2020/12/05 01:04:21;;;;;;;4.00;3.60;;;21.40;53.30;;;;;;5052794;28;20197;-70
2020/12/05 01:06:47;;;;;;;5.00;4.10;;;21.30;53.20;;;;;;5052711;28;20425;-71
2020/12/05 01:09:13;;;;;;;4.57;3.53;;;21.30;53.20;;;;;;5052768;28;20406;-70
2020/12/05 01:11:39;;;;;;;4.30;3.90;;;21.30;53.30;;;;;;5052672;28;20549;-71
2020/12/05 01:14:04;;;;;;;4.50;4.00;;;21.30;53.30;;;;;;5052674;28;20492;-70
2020/12/05 01:16:31;;;;;;;4.93;3.87;;;21.30;53.30;;;;;;5053166;28;20195;-70
2020/12/05 01:18:57;;;;;;;4.90;3.80;;;21.30;53.30;;;;;;5053118;28;20681;-71
2020/12/05 01:21:23;;;;;;;4.20;3.80;;;21.30;53.30;;;;;;5052887;28;20405;-71
2020/12/05 01:23:49;;;;;;;4.43;3.67;;;21.30;53.40;;;;;;5034754;28;20175;-71
2020/12/05 01:26:19;;;;;;;5.47;4.17;;;21.30;53.30;;;;;;5052509;28;20422;-71
2020/12/05 01:28:45;;;;;;;4.43;3.70;;;21.30;53.40;;;;;;5052900;28;20159;-70
2020/12/05 01:31:11;;;;;;;7.47;4.60;;;21.30;53.70;;;;;;5052798;28;20977;-71
2020/12/05 01:33:37;;;;;;;4.77;4.00;;;21.30;53.40;;;;;;5052499;28;20270;-71
2020/12/05 01:36:04;;;;;;;6.13;3.93;;;21.30;53.40;;;;;;5052853;28;20515;-70
2020/12/05 01:38:30;;;;;;;5.90;4.47;;;21.30;53.40;;;;;;5053509;28;20203;-71
2020/12/05 01:40:58;;;;;;;4.60;3.70;;;21.30;53.40;;;;;;5056343;28;20788;-70
2020/12/05 01:43:26;;;;;;;4.23;3.40;;;21.30;53.40;;;;;;5056836;28;20409;-71
2020/12/05 01:48:21;;;;;;;4.50;3.97;;;21.30;53.50;;;;;;5034350;28;20462;-67
2020/12/05 01:50:48;;;;;;;4.87;3.67;;;21.30;53.50;;;;;;5036233;28;20487;-68
2020/12/05 01:53:14;;;;;;;4.63;3.77;;;21.20;53.40;;;;;;5036170;28;20401;-68
2020/12/05 01:55:44;;;;;;;5.27;4.40;;;21.20;53.40;;;;;;5036140;28;20398;-68
2020/12/05 01:58:09;;;;;;;3.97;3.07;;;21.30;53.50;;;;;;5035893;28;20445;-66
2020/12/05 02:00:35;;;;;;;5.10;3.80;;;21.20;53.40;;;;;;5036079;28;20403;-67
2020/12/05 02:03:01;;;;;;;4.43;3.80;;;21.20;53.40;;;;;;5036035;28;20206;-67
2020/12/05 02:06:00;;;;;;;6.60;3.83;;;21.20;53.40;;;;;;5035995;28;20506;-67
2020/12/05 02:08:37;;;;;;;4.20;3.50;;;21.30;53.50;;;;;;5035893;28;20168;-68
2020/12/05 02:11:03;;;;;;;3.97;3.57;;;21.20;53.50;;;;;;5035917;28;20382;-68
2020/12/05 02:13:37;;;;;;;4.13;3.73;;;21.20;53.50;;;;;;5035834;28;20771;-68
2020/12/05 02:16:04;;;;;;;3.93;3.53;;;21.30;53.50;;;;;;5035691;28;20406;-68
2020/12/05 02:18:31;;;;;;;5.53;3.67;;;21.30;53.50;;;;;;5035657;28;20443;-68
2020/12/05 02:21:00;;;;;;;5.60;3.90;;;21.30;53.50;;;;;;5035605;28;20418;-68
2020/12/05 02:23:27;;;;;;;4.07;3.17;;;21.30;53.50;;;;;;5035626;28;20925;-67
2020/12/05 02:25:58;;;;;;;4.37;3.97;;;21.30;53.40;;;;;;5034216;28;20433;-67
2020/12/05 02:28:25;;;;;;;4.67;3.00;;;21.30;53.40;;;;;;5035601;28;20419;-67
2020/12/05 02:30:51;;;;;;;4.83;3.53;;;21.30;53.30;;;;;;5035451;28;20504;-68
2020/12/05 02:33:18;;;;;;;4.60;3.33;;;21.30;53.30;;;;;;5035500;28;20442;-68
2020/12/05 02:35:44;;;;;;;4.83;4.00;;;21.30;53.30;;;;;;5035408;28;20426;-68
2020/12/05 02:38:24;;;;;;;4.30;3.40;;;21.40;53.30;;;;;;5035200;28;20492;-68
2020/12/05 02:40:51;;;;;;;3.30;3.00;;;21.30;53.30;;;;;;5035339;28;20405;-67
2020/12/05 02:43:17;;;;;;;4.50;4.03;;;21.30;53.20;;;;;;5035460;28;20460;-68
2020/12/05 02:45:43;;;;;;;3.57;3.10;;;21.30;53.20;;;;;;5035332;28;20418;-67
2020/12/05 02:48:09;;;;;;;3.77;3.43;;;21.40;53.30;;;;;;5053302;28;20441;-67
2020/12/05 02:50:36;;;;;;;3.53;3.20;;;21.40;53.30;;;;;;5053798;28;20496;-68
2020/12/05 02:53:02;;;;;;;5.07;4.30;;;21.40;53.30;;;;;;5055252;28;20776;-68
2020/12/05 02:55:27;;;;;;;3.73;3.27;;;21.40;53.30;;;;;;5055028;28;20406;-68
2020/12/05 02:57:54;;;;;;;3.53;3.17;;;21.40;53.30;;;;;;5054764;28;20195;-66
2020/12/05 03:00:20;;;;;;;3.40;3.10;;;21.40;53.30;;;;;;5055175;28;20160;-69
2020/12/05 03:02:46;;;;;;;4.33;3.13;;;21.40;53.30;;;;;;5055165;28;20416;-69
2020/12/05 03:05:11;;;;;;;3.20;2.80;;;21.40;53.30;;;;;;5054713;28;20409;-68
2020/12/05 03:07:37;;;;;;;4.37;3.37;;;21.40;53.30;;;;;;5054663;28;20191;-69
2020/12/05 03:10:03;;;;;;;5.00;3.40;;;21.40;53.30;;;;;;5054692;28;20179;-69
2020/12/05 03:12:28;;;;;;;4.00;3.43;;;21.40;53.30;;;;;;5054616;28;20266;-68
2020/12/05 03:14:54;;;;;;;3.47;3.17;;;21.40;53.30;;;;;;5054836;28;20571;-69
2020/12/05 03:17:20;;;;;;;3.90;2.97;;;21.40;53.30;;;;;;5053057;28;20260;-69
2020/12/05 03:19:45;;;;;;;4.20;3.80;;;21.40;53.30;;;;;;5054456;28;20551;-68
2020/12/05 03:22:11;;;;;;;4.63;4.00;;;21.40;53.30;;;;;;5054461;28;20700;-69
2020/12/05 03:24:36;;;;;;;3.40;3.10;;;21.40;53.30;;;;;;5054363;28;20171;-69
2020/12/05 03:27:02;;;;;;;3.30;3.00;;;21.40;53.30;;;;;;5054399;28;20248;-69
2020/12/05 03:29:28;;;;;;;3.73;3.37;;;21.40;53.20;;;;;;5054597;28;20175;-68
2020/12/05 03:32:16;;;;;;;3.90;3.20;;;21.40;53.30;;;;;;5054221;28;20551;-68
2020/12/05 03:34:42;;;;;;;3.70;3.33;;;21.40;53.20;;;;;;5054334;28;20641;-69
2020/12/05 03:37:12;;;;;;;3.37;3.07;;;21.40;53.30;;;;;;5054104;28;20461;-68
2020/12/05 03:39:38;;;;;;;4.80;3.60;;;21.40;53.30;;;;;;5052791;28;20413;-68
2020/12/05 03:42:04;;;;;;;6.30;3.80;;;21.40;53.30;;;;;;5054057;28;20406;-68
2020/12/05 03:44:30;;;;;;;3.23;2.83;;;21.40;53.30;;;;;;5054052;28;20786;-68
2020/12/05 03:46:56;;;;;;;4.27;3.43;;;21.40;53.30;;;;;;5053766;28;20464;-68
2020/12/05 03:49:21;;;;;;;4.00;3.30;;;21.40;53.30;;;;;;5053957;28;20421;-68
2020/12/05 03:51:47;;;;;;;3.83;3.27;;;21.40;53.30;;;;;;5053872;28;20653;-68
2020/12/05 03:54:13;;;;;;;4.70;3.27;;;21.40;53.80;;;;;;5053792;28;20167;-68
2020/12/05 03:56:38;;;;;;;4.03;3.17;;;21.40;53.30;;;;;;5053940;28;20708;-68
2020/12/05 03:59:04;;;;;;;3.83;3.00;;;21.30;53.20;;;;;;5053731;28;20202;-68
2020/12/05 04:01:29;;;;;;;3.90;3.50;;;21.30;53.20;;;;;;5053644;28;20627;-68
2020/12/05 04:03:55;;;;;;;3.40;3.10;;;21.30;53.20;;;;;;5053654;28;20175;-69
2020/12/05 04:06:21;;;;;;;3.37;2.90;;;21.30;53.20;;;;;;5053582;28;20190;-68
2020/12/05 04:08:46;;;;;;;4.00;3.23;;;21.30;53.20;;;;;;5053610;28;20179;-68
2020/12/05 04:11:12;;;;;;;3.13;2.83;;;21.30;53.20;;;;;;5053818;28;20175;-68
2020/12/05 04:13:38;;;;;;;3.93;3.53;;;21.30;53.20;;;;;;5053760;28;20748;-68
2020/12/05 04:16:03;;;;;;;3.50;3.20;;;21.30;53.20;;;;;;5053426;28;20575;-67
2020/12/05 04:18:29;;;;;;;3.23;2.90;;;21.30;53.20;;;;;;5053571;28;20191;-68
2020/12/05 04:20:55;;;;;;;3.60;2.83;;;21.30;53.20;;;;;;5053393;28;20175;-68
2020/12/05 04:23:20;;;;;;;3.57;2.93;;;21.30;53.20;;;;;;5053635;28;20701;-68
2020/12/05 04:25:46;;;;;;;3.70;3.40;;;21.30;53.20;;;;;;5053209;28;20209;-67
2020/12/05 04:28:12;;;;;;;3.73;3.40;;;21.30;53.20;;;;;;5053257;28;20175;-68
2020/12/05 04:30:37;;;;;;;2.87;2.67;;;21.30;53.20;;;;;;5053239;28;20324;-68
2020/12/05 04:33:03;;;;;;;7.80;3.27;;;21.40;53.80;;;;;;5053159;28;20786;-68
2020/12/05 04:35:29;;;;;;;4.90;3.50;;;21.40;53.30;;;;;;5053435;28;20178;-68
2020/12/05 04:37:54;;;;;;;3.77;3.40;;;21.30;53.20;;;;;;5053017;28;20278;-68
2020/12/05 04:40:21;;;;;;;3.33;2.80;;;21.30;53.20;;;;;;5053077;28;20168;-68
2020/12/05 04:42:48;;;;;;;3.43;2.90;;;21.40;53.30;;;;;;5053073;28;20171;-68
2020/12/05 04:45:14;;;;;;;3.00;2.60;;;21.30;53.20;;;;;;5053080;28;20495;-68
2020/12/05 04:47:41;;;;;;;3.27;2.97;;;21.40;53.30;;;;;;5052798;28;20460;-68
2020/12/05 04:50:08;;;;;;;3.60;3.07;;;21.30;53.20;;;;;;5052967;28;20423;-68
2020/12/05 04:52:47;;;;;;;3.17;2.80;;;21.30;53.30;;;;;;5052951;28;20449;-68
2020/12/05 04:55:13;;;;;;;4.20;3.17;;;21.30;53.30;;;;;;5052982;28;20398;-68
2020/12/05 04:57:45;;;;;;;3.30;3.00;;;21.30;53.40;;;;;;5052742;28;20453;-68
2020/12/05 05:00:11;;;;;;;3.53;3.13;;;21.30;53.40;;;;;;5052973;28;20397;-68
2020/12/05 05:02:42;;;;;;;3.43;3.00;;;21.20;53.30;;;;;;5052835;28;20500;-68
2020/12/05 05:05:13;;;;;;;3.60;3.07;;;21.20;53.40;;;;;;5053092;28;20744;-68
2020/12/05 05:07:49;;;;;;;3.43;3.13;;;21.20;53.50;;;;;;5052775;28;20505;-68
2020/12/05 05:10:31;;;;;;;4.30;3.40;;;21.20;53.50;;;;;;5052849;28;20433;-68
2020/12/05 05:13:22;;;;;;;4.27;3.27;;;21.20;53.60;;;;;;5053058;28;20484;-68
2020/12/05 05:15:47;;;;;;;3.50;2.90;;;21.20;53.60;;;;;;5056772;28;20401;-68
2020/12/05 05:18:14;;;;;;;3.23;2.93;;;21.10;53.50;;;;;;5056701;28;20445;-68
2020/12/05 05:20:44;;;;;;;3.67;3.17;;;21.10;53.60;;;;;;5057078;28;20195;-68
2020/12/05 05:23:18;;;;;;;3.60;3.30;;;21.10;53.60;;;;;;5057004;28;20782;-67
2020/12/05 05:26:03;;;;;;;4.77;3.43;;;21.10;53.60;;;;;;5056653;28;20760;-69
2020/12/05 05:28:36;;;;;;;3.80;3.10;;;21.10;53.60;;;;;;5056900;28;20398;-68
2020/12/05 05:31:29;;;;;;;3.60;3.03;;;21.10;53.60;;;;;;5056619;28;20444;-68
2020/12/05 05:33:55;;;;;;;3.20;2.90;;;21.10;53.60;;;;;;5056802;28;20468;-68
2020/12/05 05:36:23;;;;;;;3.43;3.00;;;21.10;53.70;;;;;;5056560;28;20429;-69
2020/12/05 05:39:02;;;;;;;3.33;3.03;;;21.10;53.70;;;;;;5056233;28;20958;-68
2020/12/05 05:41:27;;;;;;;4.00;2.90;;;21.10;53.70;;;;;;5056962;28;20431;-68
2020/12/05 05:44:15;;;;;;;4.17;3.13;;;21.10;53.70;;;;;;5055102;28;20413;-68
2020/12/05 05:46:43;;;;;;;4.90;3.47;;;21.10;53.60;;;;;;5054834;28;20217;-69
2020/12/05 05:49:11;;;;;;;3.27;2.97;;;21.10;53.60;;;;;;5056242;28;20417;-67
2020/12/05 05:51:45;;;;;;;2.73;2.50;;;21.10;53.60;;;;;;5056168;28;20420;-68
2020/12/05 05:54:26;;;;;;;4.40;2.23;;;21.10;53.60;;;;;;5054896;28;20401;-69
2020/12/05 05:57:06;;;;;;;3.43;2.90;;;21.10;53.50;;;;;;5056040;28;20444;-69
2020/12/05 05:59:37;;;;;;;2.80;2.50;;;21.10;53.60;;;;;;5056130;28;20397;-69
2020/12/05 06:02:09;;;;;;;3.93;3.50;;;21.10;53.50;;;;;;5056315;28;20455;-69
2020/12/05 06:04:37;;;;;;;2.80;2.60;;;21.20;53.60;;;;;;5056230;28;20443;-68
2020/12/05 06:07:05;;;;;;;3.13;2.87;;;21.20;53.60;;;;;;5055829;28;20484;-69
2020/12/05 06:09:33;;;;;;;3.20;2.90;;;21.20;53.60;;;;;;5056150;28;20802;-69
2020/12/05 06:12:02;;;;;;;3.93;2.83;;;21.20;53.60;;;;;;5056008;28;20492;-68
2020/12/05 06:14:28;;;;;;;3.90;2.70;;;21.20;53.50;;;;;;5055963;28;20927;-69
2020/12/05 06:16:56;;;;;;;3.00;2.77;;;21.20;53.50;;;;;;5055656;28;20487;-68
2020/12/05 06:19:23;;;;;;;2.57;2.27;;;21.20;53.50;;;;;;5055666;28;20425;-69
2020/12/05 06:21:51;;;;;;;3.30;3.00;;;21.20;53.50;;;;;;5055673;28;20401;-68
2020/12/05 06:24:41;;;;;;;2.93;2.70;;;21.20;53.50;;;;;;5055323;28;20833;-68
2020/12/05 06:27:08;;;;;;;2.90;2.60;;;21.20;53.40;;;;;;5047148;28;21018;-68
2020/12/05 06:29:37;;;;;;;3.03;2.73;;;21.20;53.50;;;;;;5055599;28;20905;-68
2020/12/05 06:32:03;;;;;;;3.47;2.90;;;21.30;53.50;;;;;;5055843;28;20881;-68
2020/12/05 06:34:33;;;;;;;3.17;2.90;;;21.30;53.50;;;;;;5055391;28;20408;-68
2020/12/05 06:36:59;;;;;;;3.40;2.77;;;21.30;53.50;;;;;;5055144;28;20533;-68
2020/12/05 06:39:25;;;;;;;3.47;2.83;;;21.30;53.50;;;;;;5055282;28;20441;-68
2020/12/05 06:41:53;;;;;;;2.90;2.70;;;21.30;53.40;;;;;;5055231;28;21038;-68
2020/12/05 06:44:21;;;;;;;3.10;2.70;;;21.30;53.40;;;;;;5055240;28;20163;-68
2020/12/05 06:46:58;;;;;;;2.77;2.40;;;21.30;53.40;;;;;;5054979;28;20440;-68
2020/12/05 06:49:39;;;;;;;2.53;2.33;;;21.40;53.50;;;;;;5055458;28;20436;-68
2020/12/05 06:52:25;;;;;;;2.93;2.67;;;21.40;53.40;;;;;;5055284;28;20462;-68
2020/12/05 06:54:51;;;;;;;3.30;2.97;;;21.40;53.40;;;;;;5055488;28;20405;-69
2020/12/05 06:57:17;;;;;;;3.30;3.00;;;21.40;53.40;;;;;;5054790;28;20788;-68
2020/12/05 06:59:42;;;;;;;2.70;2.50;;;21.40;53.50;;;;;;5054790;28;20167;-68
2020/12/05 07:02:30;;;;;;;2.70;2.40;;;21.40;53.40;;;;;;5054828;28;20654;-68
2020/12/05 07:05:18;;;;;;;3.40;2.83;;;21.40;53.40;;;;;;5054895;28;20591;-69
2020/12/05 07:08:04;;;;;;;3.17;2.70;;;21.40;53.40;;;;;;5054725;28;20600;-68
2020/12/05 07:10:52;;;;;;;3.20;2.90;;;21.40;53.50;;;;;;5054702;28;20413;-68
2020/12/05 07:13:20;;;;;;;4.30;2.60;;;21.40;53.50;;;;;;5055354;28;20410;-68
2020/12/05 07:15:46;;;;;;;3.40;3.00;;;21.40;53.50;;;;;;5053263;28;20453;-68
2020/12/05 07:18:39;;;;;;;2.93;2.50;;;21.40;53.50;;;;;;5053193;28;20536;-68
2020/12/05 07:21:05;;;;;;;3.10;2.47;;;21.40;53.40;;;;;;5051804;28;20503;-68
2020/12/05 07:23:32;;;;;;;3.70;2.80;;;21.40;53.50;;;;;;5054435;28;20406;-69
2020/12/05 07:25:59;;;;;;;2.97;2.43;;;21.40;53.50;;;;;;5054539;28;20416;-69
2020/12/05 07:28:24;;;;;;;3.47;2.70;;;21.40;53.50;;;;;;5054386;28;20443;-69
2020/12/05 07:30:50;;;;;;;2.73;2.33;;;21.40;53.50;;;;;;5054605;28;20599;-69
2020/12/05 07:33:16;;;;;;;3.00;2.70;;;21.40;53.50;;;;;;5054251;28;20177;-69
2020/12/05 07:35:42;;;;;;;2.60;2.20;;;21.40;53.50;;;;;;5053572;28;20256;-69
2020/12/05 07:38:15;;;;;;;2.23;2.03;;;21.40;53.50;;;;;;5053959;28;20202;-69
2020/12/05 07:40:41;;;;;;;3.20;2.90;;;21.40;53.50;;;;;;5054492;28;20163;-68
2020/12/05 07:43:18;;;;;;;3.10;2.57;;;21.40;53.50;;;;;;5054454;28;20501;-69
2020/12/05 07:45:44;;;;;;;3.17;2.87;;;21.40;53.40;;;;;;5054396;28;20827;-69
2020/12/05 07:48:11;;;;;;;3.03;2.63;;;21.40;53.50;;;;;;5053947;28;20505;-68
2020/12/05 07:50:37;;;;;;;3.83;3.27;;;21.30;53.40;;;;;;5053939;28;20564;-69
2020/12/05 07:53:03;;;;;;;4.53;3.37;;;21.30;53.40;;;;;;5054128;28;20413;-69
2020/12/05 07:55:30;;;;;;;3.83;3.03;;;21.30;53.30;;;;;;5053849;28;20172;-68
2020/12/05 07:57:55;;;;;;;4.10;3.67;;;21.30;53.30;;;;;;5053652;28;20202;-69
2020/12/05 08:00:22;;;;;;;4.03;3.63;;;21.30;53.30;;;;;;5053782;28;20409;-68
2020/12/05 08:03:17;;;;;;;3.77;2.97;;;21.30;53.30;;;;;;5053745;28;20171;-68
2020/12/05 08:05:52;;;;;;;3.83;3.07;;;21.30;53.20;;;;;;5053680;28;20390;-68
2020/12/05 08:08:18;;;;;;;3.50;3.17;;;21.30;53.30;;;;;;5053809;28;20412;-68
2020/12/05 08:10:44;;;;;;;3.83;3.07;;;21.30;53.30;;;;;;5053628;28;20418;-68
2020/12/05 08:13:20;;;;;;;3.90;3.50;;;21.30;53.40;;;;;;5053800;28;20417;-68
2020/12/05 08:15:57;;;;;;;3.47;3.17;;;21.30;53.40;;;;;;5052258;28;20405;-68
2020/12/05 08:18:25;;;;;;;3.67;3.00;;;21.30;53.40;;;;;;5052159;28;20457;-68
2020/12/05 08:20:51;;;;;;;5.13;3.57;;;21.30;53.40;;;;;;5053350;28;20995;-68
2020/12/05 08:23:24;;;;;;;3.60;3.30;;;21.30;53.40;;;;;;5053427;28;20427;-68
2020/12/05 08:25:52;;;;;;;4.10;3.67;;;21.30;53.40;;;;;;5053127;28;20440;-67
2020/12/05 08:28:22;;;;;;;6.60;3.63;;;21.30;53.40;;;;;;5053298;28;20493;-69
2020/12/05 08:30:49;;;;;;;3.30;3.00;;;21.30;53.40;;;;;;5053292;28;20417;-68
2020/12/05 08:33:15;;;;;;;3.97;3.57;;;21.30;53.40;;;;;;5053221;28;20787;-68
2020/12/05 08:35:42;;;;;;;5.07;3.73;;;21.30;53.40;;;;;;5053303;28;20414;-68
2020/12/05 08:38:11;;;;;;;3.47;3.17;;;21.30;53.40;;;;;;5052950;28;20685;-68
2020/12/05 08:40:37;;;;;;;4.77;3.47;;;21.30;53.40;;;;;;5053157;28;20445;-68
2020/12/05 08:43:03;;;;;;;4.47;3.50;;;21.30;53.40;;;;;;5053358;28;20434;-68
2020/12/05 08:45:29;;;;;;;4.60;3.70;;;21.30;54.00;;;;;;5053029;28;20171;-68
2020/12/05 08:47:54;;;;;;;4.03;3.70;;;21.30;53.50;;;;;;5052338;28;20449;-69
2020/12/05 08:50:35;;;;;;;4.20;3.80;;;21.30;53.50;;;;;;5052269;28;20531;-68
2020/12/05 08:53:02;;;;;;;4.50;3.73;;;21.30;53.50;;;;;;5050062;28;20197;-69
2020/12/05 08:55:30;;;;;;;4.43;3.60;;;21.30;53.60;;;;;;5052188;28;20418;-69
2020/12/05 08:58:00;;;;;;;5.00;3.90;;;21.30;53.60;;;;;;5052006;28;20448;-69
2020/12/05 09:00:28;;;;;;;4.80;3.80;;;21.20;53.50;;;;;;5051038;28;20432;-69
2020/12/05 09:02:53;;;;;;;5.07;3.97;;;21.20;53.50;;;;;;5052254;28;20459;-68
2020/12/05 09:05:20;;;;;;;4.80;3.70;;;21.20;53.50;;;;;;5052742;28;20417;-69
2020/12/05 09:07:59;;;;;;;5.00;4.50;;;21.20;53.50;;;;;;5052887;28;20194;-68
2020/12/05 09:10:29;;;;;;;4.67;3.70;;;21.20;53.50;;;;;;5050920;28;20498;-67
2020/12/05 09:13:05;;;;;;;4.53;4.13;;;21.20;53.50;;;;;;5052680;28;20413;-67
2020/12/05 09:15:30;;;;;;;6.30;4.43;;;21.30;53.60;;;;;;5052609;28;20470;-67
2020/12/05 09:17:57;;;;;;;6.10;4.27;;;21.30;53.50;;;;;;5052524;28;20453;-67
2020/12/05 09:20:23;;;;;;;4.60;4.20;;;21.30;53.50;;;;;;5052683;28;20202;-67
2020/12/05 09:22:53;;;;;;;4.33;3.87;;;21.30;54.10;;;;;;5052609;28;20500;-67
2020/12/05 09:25:28;;;;;;;4.07;3.67;;;21.30;53.50;;;;;;5052582;28;20402;-67
2020/12/05 09:27:53;;;;;;;6.43;4.30;;;21.30;53.50;;;;;;5052575;28;20847;-67
2020/12/05 09:30:19;;;;;;;4.37;3.97;;;21.30;53.50;;;;;;5052552;28;20414;-67
2020/12/05 09:32:47;;;;;;;5.20;4.13;;;21.30;53.50;;;;;;5052652;28;20183;-66
2020/12/05 09:35:15;;;;;;;5.60;4.07;;;21.30;53.50;;;;;;5052583;28;20492;-67
2020/12/05 09:37:42;;;;;;;4.40;4.00;;;21.30;53.50;;;;;;5052349;28;20885;-67
2020/12/05 09:40:11;;;;;;;4.23;3.83;;;21.30;53.50;;;;;;5051217;28;20413;-67
2020/12/05 09:42:37;;;;;;;5.30;4.67;;;21.30;53.50;;;;;;5052467;28;20410;-65
2020/12/05 09:45:04;;;;;;;4.80;4.20;;;21.30;53.50;;;;;;5052484;28;20413;-67
2020/12/05 09:47:30;;;;;;;5.73;4.07;;;21.30;53.50;;;;;;5052209;28;20472;-67
2020/12/05 09:49:55;;;;;;;6.13;4.40;;;21.30;53.50;;;;;;5052494;28;20413;-67
2020/12/05 09:52:21;;;;;;;5.20;4.70;;;21.30;53.50;;;;;;5052261;28;20713;-66
2020/12/05 09:54:46;;;;;;;5.63;4.77;;;21.20;53.40;;;;;;5051133;28;20187;-67
2020/12/05 09:57:12;;;;;;;4.07;3.67;;;21.30;53.50;;;;;;5050893;28;20273;-66
2020/12/05 09:59:38;;;;;;;5.73;4.77;;;21.30;53.50;;;;;;5052472;28;20172;-66
2020/12/05 10:02:04;;;;;;;5.20;4.70;;;21.30;53.50;;;;;;5055053;28;20183;-67
2020/12/05 10:04:30;;;;;;;4.57;4.13;;;21.30;53.50;;;;;;5055982;28;20252;-65
2020/12/05 10:06:56;;;;;;;6.67;4.10;;;21.30;54.10;;;;;;5054537;28;20437;-67
2020/12/05 10:09:21;;;;;;;5.17;4.63;;;21.30;53.50;;;;;;5055868;28;20409;-67
2020/12/05 10:11:47;;;;;;;4.67;4.20;;;21.30;53.50;;;;;;5055813;28;20638;-67
2020/12/05 10:14:13;;;;;;;5.60;4.63;;;21.20;53.50;;;;;;5056098;28;20167;-67
2020/12/05 10:16:38;;;;;;;5.67;4.40;;;21.30;53.50;;;;;;5055980;28;20762;-67
2020/12/05 10:19:04;;;;;;;5.67;4.67;;;21.20;53.50;;;;;;5056326;28;20207;-67
2020/12/05 10:21:30;;;;;;;7.90;4.40;;;21.20;53.50;;;;;;5055861;28;20210;-66
2020/12/05 10:23:55;;;;;;;5.33;4.83;;;21.20;53.50;;;;;;5055567;28;20174;-67
2020/12/05 10:26:21;;;;;;;5.97;5.07;;;21.20;53.50;;;;;;5055682;28;20217;-66
2020/12/05 10:28:46;;;;;;;5.63;5.13;;;21.20;53.50;;;;;;5055533;28;20174;-67
2020/12/05 10:31:12;;;;;;;5.00;4.50;;;21.20;53.50;;;;;;5055437;28;20594;-66
2020/12/05 10:33:38;;;;;;;6.80;5.00;;;21.20;54.10;;;;;;5054155;28;20179;-66
2020/12/05 10:36:03;;;;;;;5.10;4.60;;;21.20;53.50;;;;;;5055530;28;20179;-67
2020/12/05 10:38:29;;;;;;;7.57;5.30;;;21.20;53.60;;;;;;5055324;28;20550;-67
2020/12/05 10:40:55;;;;;;;6.90;4.50;;;21.20;53.60;;;;;;5055319;28;20175;-67
2020/12/05 10:43:21;;;;;;;7.40;5.53;;;21.20;53.50;;;;;;5055312;28;20179;-67
2020/12/05 10:45:47;;;;;;;6.40;4.90;;;21.20;53.60;;;;;;5055095;28;20409;-66
2020/12/05 10:48:13;;;;;;;4.07;3.67;;;21.20;53.50;;;;;;5054921;28;20810;-66
2020/12/05 10:50:38;;;;;;;5.70;5.10;;;21.20;53.50;;;;;;5055001;28;20176;-67
2020/12/05 10:53:04;;;;;;;5.73;5.00;;;21.20;53.50;;;;;;5053809;28;20398;-68
2020/12/05 10:55:30;;;;;;;6.93;5.10;;;21.20;53.50;;;;;;5053990;28;20253;-67
2020/12/05 10:57:56;;;;;;;6.70;4.80;;;21.20;53.50;;;;;;5053995;28;20195;-67
2020/12/05 11:00:22;;;;;;;6.07;5.03;;;21.30;53.50;;;;;;5053753;28;20171;-68
2020/12/05 11:02:48;;;;;;;6.60;5.27;;;21.30;53.50;;;;;;5053599;28;20459;-67
2020/12/05 11:05:13;;;;;;;6.83;4.90;;;21.30;53.50;;;;;;5054446;28;20406;-68
2020/12/05 11:07:39;;;;;;;8.17;5.20;;;21.30;53.50;;;;;;5054388;28;20198;-67
2020/12/05 11:10:05;;;;;;;6.57;4.77;;;21.30;53.50;;;;;;5055367;28;20175;-67
2020/12/05 11:12:30;;;;;;;6.77;4.93;;;21.30;53.50;;;;;;5054034;28;20171;-67
2020/12/05 11:14:56;;;;;;;6.60;5.80;;;21.30;53.50;;;;;;5055051;28;20171;-67
2020/12/05 11:17:22;;;;;;;5.90;4.40;;;21.30;53.50;;;;;;5054619;28;20567;-67
2020/12/05 11:19:47;;;;;;;6.93;5.93;;;21.30;53.40;;;;;;5054566;28;20167;-67
2020/12/05 11:22:13;;;;;;;6.10;4.70;;;21.30;53.40;;;;;;5054535;28;20217;-67
2020/12/05 11:24:39;;;;;;;7.03;5.10;;;21.30;53.40;;;;;;5054445;28;20172;-66
2020/12/05 11:27:04;;;;;;;7.57;4.97;;;21.30;53.40;;;;;;5054585;28;20187;-67
2020/12/05 11:29:30;;;;;;;6.30;4.90;;;21.30;53.40;;;;;;5054366;28;20671;-67
2020/12/05 11:31:55;;;;;;;6.17;5.37;;;21.30;53.40;;;;;;5054302;28;20270;-67
2020/12/05 11:34:21;;;;;;;5.90;4.30;;;21.30;53.40;;;;;;5054209;28;20210;-66
2020/12/05 11:36:47;;;;;;;5.80;4.87;;;21.30;53.40;;;;;;5054623;28;20295;-67
2020/12/05 11:39:13;;;;;;;5.23;4.30;;;21.30;53.50;;;;;;5054060;28;20445;-66
2020/12/05 11:41:38;;;;;;;10.70;5.23;;;21.30;53.40;;;;;;5054407;28;20202;-66
2020/12/05 11:44:05;;;;;;;8.97;6.03;;;21.30;53.50;;;;;;5054032;28;20198;-66
2020/12/05 11:46:31;;;;;;;9.43;7.73;;;21.30;53.30;;;;;;5053865;28;20278;-67
2020/12/05 11:48:57;;;;;;;9.80;8.67;;;21.20;52.80;;;;;;5053998;28;20940;-66
2020/12/05 11:51:27;;;;;;;10.30;8.17;;;21.20;52.50;;;;;;5053915;28;20404;-67
2020/12/05 11:53:52;;;;;;;8.70;7.63;;;21.10;52.00;;;;;;5053896;28;20409;-67
2020/12/05 11:56:18;;;;;;;11.03;7.93;;;21.10;51.80;;;;;;5053978;28;20428;-66
2020/12/05 11:58:44;;;;;;;8.40;6.70;;;21.10;51.90;;;;;;5053782;28;20194;-67
2020/12/05 12:01:10;;;;;;;7.90;6.37;;;21.10;52.00;;;;;;5053708;28;20779;-65
2020/12/05 12:03:36;;;;;;;7.83;5.10;;;21.10;52.30;;;;;;5053695;28;20171;-67
2020/12/05 12:06:02;;;;;;;9.23;5.40;;;21.10;52.50;;;;;;5053630;28;20598;-67
2020/12/05 12:08:28;;;;;;;6.13;4.83;;;21.10;52.60;;;;;;5053562;28;20463;-66
2020/12/05 12:10:53;;;;;;;5.30;4.80;;;21.10;52.70;;;;;;5052277;28;20417;-66
2020/12/05 12:13:19;;;;;;;6.90;4.87;;;21.10;52.80;;;;;;5053863;28;20212;-66
2020/12/05 12:15:44;;;;;;;7.40;5.43;;;21.10;52.80;;;;;;5054037;28;20182;-66
2020/12/05 12:18:10;;;;;;;6.07;4.60;;;21.10;52.80;;;;;;5053830;28;20198;-65
2020/12/05 12:20:36;;;;;;;8.87;5.07;;;21.10;52.90;;;;;;5052058;28;20171;-66
2020/12/05 12:23:01;;;;;;;5.30;4.67;;;21.10;52.90;;;;;;5053388;28;20178;-66
2020/12/05 12:25:27;;;;;;;7.60;5.07;;;21.10;52.90;;;;;;5053391;28;20178;-66
2020/12/05 12:27:53;;;;;;;7.03;5.10;;;21.10;52.90;;;;;;5053254;28;20210;-66
2020/12/05 12:30:18;;;;;;;7.27;4.90;;;21.10;52.90;;;;;;5053291;28;20249;-66
2020/12/05 12:32:44;;;;;;;6.73;5.07;;;21.10;52.90;;;;;;5053249;28;20229;-67
2020/12/05 12:35:10;;;;;;;5.70;4.83;;;21.10;52.90;;;;;;5053237;28;20658;-67
2020/12/05 12:37:35;;;;;;;8.93;5.60;;;21.10;52.90;;;;;;5052967;28;20199;-66
2020/12/05 12:40:01;;;;;;;5.87;5.00;;;21.20;53.00;;;;;;5053154;28;20190;-66
2020/12/05 12:42:28;;;;;;;8.67;4.37;;;21.20;53.00;;;;;;5053125;28;20226;-67
2020/12/05 12:44:55;;;;;;;6.07;5.47;;;21.20;52.90;;;;;;5053125;28;20253;-67
2020/12/05 12:49:59;;;;;;;6.53;5.50;;;21.20;52.90;;;;;;5053342;28;20888;-67
2020/12/05 12:52:25;;;;;;;5.70;4.60;;;21.20;52.90;;;;;;5053031;28;20500;-67
2020/12/05 12:54:50;;;;;;;6.47;4.70;;;21.30;52.90;;;;;;5053024;28;20501;-66